Terminal Aerodrome Forecast
Issued by NWS Chicago, IL

Home | Current Version | Previous Version | Text Only | Print | Product List | Glossary On
Versions: 1 2 3 4 5 6 7 8 9 10 11 12 13 14 15 16 17 18 19 20 21 22 23 24 25 26 27 28 29 30 31 32 33 34 35
000
FTUS43 KLOT 281900 AAA
TAFRFD
TAF AMD
KRFD 281910Z 2819/2918 16012G19KT P6SM SCT020 BKN120 BKN200
      TEMPO 2819/2821 BKN020
     FM290000 19011KT P6SM SCT015 BKN090
     FM290700 19007KT 5SM BR BKN200
     FM291500 20012G20KT 6SM BR BKN200=

USA.gov is the U.S. government's official web portal to all federal, state and local government web resources and services.